This is the latest recevied weather packets stored in our database for station/object IW1AXR-3. If no packets are shown the sender has not sent any weather packets the latest 10 day(s).
| Time | Temp. | Humidity | Pressure | Rain* | Wind** | Luminosity | Snow |
|---|---|---|---|---|---|---|---|
| 1777843619 | 12.78° C | 72% | 1016.2 hPa | - | - | - | - |
| 1777840571 | 13.33° C | 73% | 1016.1 hPa | - | - | - | - |
| 1777830845 | 14.44° C | 70% | 1015.3 hPa | - | - | - | - |
| 1777829077 | 16.11° C | 64% | 1015.4 hPa | - | - | - | - |
| 1777829021 | 16.11° C | 64% | 1015.4 hPa | - | - | - | - |
| 1777818667 | 20° C | 46% | 1015.7 hPa | - | - | - | - |
| 1777813163 | 17.78° C | 49% | 1016.6 hPa | - | - | - | - |
| 1777807073 | 19.44° C | 46% | 1017.1 hPa | - | - | - | - |
| 1777802199 | 21.11° C | 47% | 1017.5 hPa | - | - | - | - |
| 1777799146 | 20° C | 50% | 1017.9 hPa | - | - | - | - |
| 1777796096 | 16.67° C | 64% | 1018.1 hPa | - | - | - | - |
| 1777786892 | 11.11° C | 72% | 1018 hPa | - | - | - | - |
| 1777785669 | 10.56° C | 71% | 1017.8 hPa | - | - | - | - |
| 1777785064 | 10° C | 72% | 1017.9 hPa | - | - | - | - |
| 1777783845 | 10° C | 72% | 1017.9 hPa | - | - | - | - |
| 1777782620 | 10° C | 72% | 1017.8 hPa | - | - | - | - |
| 1777782010 | 9.44° C | 74% | 1017.8 hPa | - | - | - | - |
| 1777778952 | 10° C | 73% | 1018.1 hPa | - | - | - | - |
| 1777778346 | 10° C | 73% | 1018.2 hPa | - | - | - | - |
| 1777776508 | 10.56° C | 72% | 1018.2 hPa | - | - | - | - |
| 1777774725 | 10.56° C | 74% | 1018.5 hPa | - | - | - | - |
| 1777774677 | 10.56° C | 74% | 1018.5 hPa | - | - | - | - |
| 1777771620 | 10.56° C | 74% | 1018.7 hPa | - | - | - | - |
| 1777769175 | 10.56° C | 74% | 1018.8 hPa | - | - | - | - |
| 1777764949 | 11.11° C | 74% | 1019.5 hPa | - | - | - | - |
* Rain since midnight (hover to see other rain measurements)
** Current wind speed in m/s (hover to see current wind gust speed)